Metar Cercanos

 

LEPA - Palma De Mallorc, Spain
Distance from station: ONO 38km
Actualización: Mon, 27-Jun-2022 9:30am CEST
Muy nuboso
Muy nuboso
 Viento del NE
Viento: NE 2 km/h
Temperatura: 26°C
Rocío: 22°C
Humedad: 79%
Barómetro: 1013 hPa
Clouds: Muy nuboso
Visibility: 10 km
Cloud details: Muy nuboso 488 m
2022/06/27 07:30 LEPA 270730Z 04001KT 9999 BKN016 26/22 Q1013 NOSIG
LEMH - Mahon/Menorca Is, Spain
Distance from station: ENE 105km
Actualización: Mon, 27-Jun-2022 9:30am CEST
Muy nuboso
Muy nuboso
 Viento del N
Viento: N 22 km/h
Temperatura: 25°C
Rocío: 22°C
Humedad: 83%
Barómetro: 1013 hPa
Clouds: Muy nuboso
Visibility: 10 km
Cloud details: Few Clouds 305 m
Muy nuboso 610 m
2022/06/27 07:30 LEMH 270730Z 01012KT 340V040 9999 FEW010 BKN020 25/22 Q1013
 
LEIB - Ibiza/Es Codola, Spain
Distance from station: OSO 165km
Actualización: Mon, 27-Jun-2022 9:30am CEST
Few Clouds
Few Clouds
 Viento del varies
Viento: varies 6 km/h
Temperatura: 25°C
Rocío: 20°C
Humedad: 74%
Barómetro: 1012 hPa
Clouds: Few Clouds
Visibility: 10 km
Cloud details: Few Clouds 335 m
2022/06/27 07:30 LEIB 270730Z VRB03KT 9999 FEW011 25/20 Q1012 NOSIG
LEBL - Barcelona Airpor, Spain
Distance from station: NNO 225km
Actualización: Mon, 27-Jun-2022 9:30am CEST
Parcialmente nuboso
Parcialmente nuboso
 Viento del S
Viento: S 6 km/h
Temperatura: 25°C
Rocío: 20°C
Humedad: 74%
Barómetro: 1013 hPa
Clouds: Parcialmente nuboso
Visibility: 10 km
Cloud details: Few Clouds 488 m
Parcialmente nuboso 1158 m
2022/06/27 07:30 LEBL 270730Z 17003KT 9999 FEW016 SCT038 25/20 Q1013 NOSIG
 
LEVC - Valencia (civ/Mi, Spain
Distance from station: NO 188km
Actualización: Mon, 27-Jun-2022 9:30am CEST
Muy nuboso
Muy nuboso
 Viento del NNE
Viento: NNE 15 km/h
Temperatura: 24°C
Rocío: 17°C
Humedad: 65%
Barómetro: 1013 hPa
Clouds: Muy nuboso
Visibility: 10 km
Cloud details: Few Clouds 396 m
Parcialmente nuboso 549 m
Muy nuboso 762 m
2022/06/27 07:30 LEVC 270730Z 03008KT 330V070 9999 FEW013 SCT018 BKN025 24/17 Q1013 NOSIG
LEGE - Gerona/Costa Bra, Spain
Distance from station: N 276km
Actualización: Mon, 27-Jun-2022 9:30am CEST
Few Clouds
Few Clouds
 Viento del NE
Viento: NE 15 km/h
Temperatura: 22°C
Rocío: 14°C
Humedad: 61%
Barómetro: 1014 hPa
Clouds: Few Clouds
Visibility: 10 km
Cloud details: Few Clouds 762 m
2022/06/27 07:30 LEGE 270730Z 05008KT 010V080 9999 FEW025 22/14 Q1014
 
LEAL - Alicante/El Alte, Spain
Distance from station: OSO 344km
Actualización: Mon, 27-Jun-2022 9:30am CEST
Few Clouds
Few Clouds
 Viento del ENE
Viento: ENE 13 km/h
Temperatura: 24°C
Rocío: 18°C
Humedad: 69%
Barómetro: 1012 hPa
Clouds: Few Clouds
Visibility: 10 km
Cloud details: Few Clouds 305 m
2022/06/27 07:30 LEAL 270730Z 06007KT 030V090 9999 FEW010 24/18 Q1012 NOSIG
LEAM - Almeria Airport, Spain
Distance from station: SSO 56km
Actualización: Mon, 27-Jun-2022 9:30am CEST
Despejado
Despejado
 Viento del SSO
Viento: SSO 7 km/h
Temperatura: 19°C
Rocío: 16°C
Humedad: 83%
Barómetro: 1012 hPa
Resumen: Despejado
Visibility: greater than 10 km
2022/06/27 07:30 LEAM 270730Z 20004KT 160V240 CAVOK 19/16 Q1012
 
LEZG - Zaragoza (mil/Ci, Spain
Distance from station: NO 431km
Actualización: Mon, 27-Jun-2022 9:30am CEST
Few Clouds
Few Clouds
 Viento del ONO
Viento: ONO 41 km/h
Temperatura: 18°C
Rocío: 10°C
Humedad: 60%
Barómetro: 1016 hPa
Clouds: Few Clouds
Visibility: 10 km
Cloud details: Few Clouds 1829 m
2022/06/27 07:30 LEZG 270730Z 30022KT 9999 FEW060 18/10 Q1016
LEMD - Madrid/Barajas, Spain
Distance from station: ONO 234km
Actualización: Mon, 27-Jun-2022 9:30am CEST
Despejado
Despejado
 Viento del NNE
Viento: NNE 13 km/h
Temperatura: 19°C
Rocío: 9°C
Humedad: 52%
Barómetro: 1016 hPa
Resumen: Despejado
Visibility: greater than 10 km
2022/06/27 07:30 LEMD 270730Z 03007KT 330V100 CAVOK 19/09 Q1016 NOSIG
 
LEGR - Granada Airport, Spain
Distance from station: OSO 62km
Actualización: Mon, 27-Jun-2022 9:30am CEST
Despejado
Despejado
 Viento del NO
Viento: NO 9 km/h
Temperatura: 18°C
Rocío: 7°C
Humedad: 49%
Barómetro: 1016 hPa
Resumen: Despejado
Visibility: greater than 10 km
2022/06/27 07:30 LEGR 270730Z 31005KT 260V350 CAVOK 18/07 Q1016
LEMG - Malaga (civ/Mil), Spain
Distance from station: OSO 227km
Actualización: Mon, 27-Jun-2022 9:30am CEST
Despejado
Despejado
 Viento del O
Viento: O 33 km/h
Temperatura: 23°C
Rocío: 6°C
Humedad: 33%
Barómetro: 1013 hPa
Resumen: Despejado
Visibility: greater than 10 km
2022/06/27 07:30 LEMG 270730Z 28018KT CAVOK 23/06 Q1013 NOSIG
 
LEZL - Sevilla (civ/Mil, Spain
Distance from station: S 318km
Actualización: Mon, 27-Jun-2022 9:30am CEST
Despejado
Despejado
 Viento del calm
Viento: Calma
Temperatura: 20°C
Rocío: 6°C
Humedad: 40%
Barómetro: 1016 hPa
Resumen: Despejado
Visibility: greater than 10 km
2022/06/27 07:30 LEZL 270730Z 00000KT CAVOK 20/06 Q1016 NOSIG
LEVT - Vitoria, Spain
Distance from station: NO 226km
Actualización: Mon, 27-Jun-2022 9:30am CEST
Cubierto
Cubierto
 Viento del NO
Viento: NO 11 km/h
Temperatura: 13°C
Rocío: 9°C
Humedad: 77%
Barómetro: 1021 hPa
Clouds: Cubierto
Visibility: 9 km
Cloud details: Few Clouds 366 m
Muy nuboso 610 m
Cubierto 732 m
2022/06/27 07:30 LEVT 270730Z 31006KT 9000 FEW012 BKN020 OVC024 13/09 Q1021
 
LEBB - Bilbao/Sondica, Spain
Distance from station: NNO 235km
Actualización: Mon, 27-Jun-2022 9:30am CEST
Muy nuboso
Muy nuboso
 Viento del calm
Viento: Calma
Temperatura: 16°C
Rocío: 12°C
Humedad: 77%
Barómetro: 1021 hPa
Clouds: Muy nuboso
Visibility: 10 km
Cloud details: Few Clouds 1067 m
Muy nuboso 1829 m
2022/06/27 07:30 LEBB 270730Z 00000KT 9999 FEW035 BKN060 16/12 Q1021 NOSIG
LESO - San Sebastian/Fu, Spain
Distance from station: N 231km
Actualización: Mon, 27-Jun-2022 9:30am CEST
Light drizzle, Muy nuboso
Light drizzle, Muy nuboso
 Viento del varies
Viento: varies 2 km/h
Temperatura: 15°C
Rocío: 15°C
Humedad: 100%
Barómetro: 1021 hPa
Resumen: Light Drizzle
Clouds: Muy nuboso
Visibility: 5 km
Cloud details: Parcialmente nuboso 457 m
Muy nuboso 914 m
2022/06/27 07:30 LESO 270730Z VRB01KT 5000 -DZ SCT015 BKN030 15/15 Q1021
 
LEVD - Valladolid(Mil/C, Spain
Distance from station: ONO 239km
Actualización: Mon, 27-Jun-2022 9:30am CEST
Despejado
Despejado
 Viento del NE
Viento: NE 31 km/h
Temperatura: 12°C
Rocío: 6°C
Humedad: 67%
Barómetro: 1019 hPa
Resumen: Despejado
Visibility: greater than 10 km
2022/06/27 07:30 LEVD 270730Z 05017KT CAVOK 12/06 Q1019
LESA - Salamanca (civ/M, Spain
Distance from station: ONO 349km
Actualización: Mon, 27-Jun-2022 9:30am CEST
Muy nuboso
Muy nuboso
 Viento del NNE
Viento: NNE 13 km/h
Temperatura: 11°C
Rocío: 5°C
Humedad: 67%
Barómetro: 1019 hPa
Clouds: Muy nuboso
Visibility: 10 km
Cloud details: Muy nuboso 488 m
2022/06/27 07:30 LESA 270730Z 03007KT 360V070 9999 BKN016 11/05 Q1019
 
LEXJ - Santander/Paraya, Spain
Distance from station: NNO 247km
Actualización: Mon, 27-Jun-2022 9:30am CEST
Parcialmente nuboso
Parcialmente nuboso
 Viento del SO
Viento: SO 11 km/h
Temperatura: 16°C
Rocío: 11°C
Humedad: 72%
Barómetro: 1022 hPa
Clouds: Parcialmente nuboso
Visibility: 10 km
Cloud details: Parcialmente nuboso 1219 m
Parcialmente nuboso 2134 m
2022/06/27 07:30 LEXJ 270730Z 23006KT 190V270 9999 SCT040 SCT070 16/11 Q1022
LEAS - Asturias/Aviles, Spain
Distance from station: NO 214km
Actualización: Mon, 27-Jun-2022 9:30am CEST
Parcialmente nuboso
Parcialmente nuboso
 Viento del OSO
Viento: OSO 9 km/h
Temperatura: 15°C
Rocío: 11°C
Humedad: 77%
Barómetro: 1022 hPa
Clouds: Parcialmente nuboso
Visibility: 10 km
Cloud details: Parcialmente nuboso 1981 m
2022/06/27 07:30 LEAS 270730Z 25005KT 230V300 9999 SCT065 15/11 Q1022 NOSIG
 
LECO - La Coruna/Alvedr, Spain
Distance from station: ONO 222km
Actualización: Mon, 27-Jun-2022 9:30am CEST
Parcialmente nuboso
Parcialmente nuboso
 Viento del S
Viento: S 6 km/h
Temperatura: 13°C
Rocío: 10°C
Humedad: 82%
Barómetro: 1022 hPa
Clouds: Parcialmente nuboso
Visibility: 10 km
Cloud details: Few Clouds 884 m
Parcialmente nuboso 1097 m
2022/06/27 07:30 LECO 270730Z 17003KT 110V200 9999 FEW029 SCT036 13/10 Q1022 NOSIG
LEVX - Vigo/Peinador, Spain
Distance from station: O 214km
Actualización: Mon, 27-Jun-2022 9:30am CEST
Despejado
Despejado
 Viento del NNE
Viento: NNE 9 km/h
Temperatura: 14°C
Rocío: 9°C
Humedad: 72%
Barómetro: 1022 hPa
Resumen: Despejado
Visibility: greater than 10 km
2022/06/27 07:30 LEVX 270730Z 03005KT 330V120 CAVOK 14/09 Q1022 NOSIG